Time;durP1;ratioP1;P1;durP2;ratioP2;P2;SDS_P1;SDS_P2;PMS_P1;PMS_P2;Temp;Humidity;BMP_temperature;BMP_pressure;BME280_temperature;BME280_humidity;BME280_pressure;Samples;Min_cycle;Max_cycle;Signal;HPM_P1;HPM_P2
2021/12/02 00:04:06;;;;;;;11.70;6.22;;;;;;;20.85;46.28;94653.13;10487029;28;20052;-53
2021/12/02 00:09:26;;;;;;;11.88;6.28;;;;;;;20.84;46.31;94665.13;10483985;28;20122;-53
2021/12/02 00:14:47;;;;;;;11.98;5.40;;;;;;;20.82;46.08;94665.50;10471523;28;20045;-53
2021/12/02 00:25:45;;;;;;;9.10;5.88;;;;;;;20.78;46.33;94670.13;10467619;28;20492;-54
2021/12/02 00:31:06;;;;;;;9.48;5.32;;;;;;;20.76;46.09;94661.63;10494604;28;20086;-52
2021/12/02 00:36:27;;;;;;;10.90;5.50;;;;;;;20.74;46.16;94655.81;10482354;28;20053;-53
2021/12/02 00:41:47;;;;;;;11.63;5.88;;;;;;;20.73;46.13;94665.84;10454147;28;20072;-53
2021/12/02 00:47:08;;;;;;;10.98;5.47;;;;;;;20.71;45.98;94664.69;10475185;28;20052;-52
2021/12/02 00:52:29;;;;;;;11.00;5.50;;;;;;;20.70;46.10;94669.34;10455996;28;20499;-53
2021/12/02 00:57:48;;;;;;;9.77;4.97;;;;;;;20.68;46.16;94676.25;10481406;28;20107;-53
2021/12/02 01:03:08;;;;;;;9.55;5.35;;;;;;;20.66;46.03;94673.97;10466396;28;20053;-53
2021/12/02 01:08:29;;;;;;;8.02;4.85;;;;;;;20.64;46.00;94673.56;10456918;28;20069;-53
2021/12/02 01:13:49;;;;;;;10.98;4.97;;;;;;;20.63;45.86;94684.78;10457997;28;20045;-53
2021/12/02 01:19:09;;;;;;;8.65;5.07;;;;;;;20.62;45.95;94686.72;10455796;28;20053;-52
2021/12/02 01:24:29;;;;;;;7.50;4.65;;;;;;;20.61;45.90;94687.09;10471550;28;20052;-53
2021/12/02 01:29:52;;;;;;;8.30;4.53;;;;;;;20.58;45.86;94680.47;10479821;28;20033;-53
2021/12/02 01:35:11;;;;;;;10.18;4.70;;;;;;;20.57;45.85;94678.91;10465283;28;20064;-53
2021/12/02 01:40:31;;;;;;;11.45;5.13;;;;;;;20.55;45.87;94692.06;10492015;28;20043;-54
2021/12/02 01:45:51;;;;;;;8.75;4.80;;;;;;;20.54;45.79;94709.44;10472988;28;20060;-54
2021/12/02 01:51:11;;;;;;;7.07;4.40;;;;;;;20.52;45.68;94696.31;10472382;28;20044;-53
2021/12/02 01:56:31;;;;;;;7.40;4.35;;;;;;;20.51;45.80;94693.97;10455474;28;20040;-53
2021/12/02 02:01:55;;;;;;;8.57;4.72;;;;;;;20.49;45.88;94701.69;10457347;28;20050;-53
2021/12/02 02:07:15;;;;;;;6.18;3.80;;;;;;;20.47;45.88;94704.78;10479784;28;20059;-52
2021/12/02 02:12:35;;;;;;;8.20;4.03;;;;;;;20.47;45.85;94712.13;10487624;28;20102;-53
2021/12/02 02:23:14;;;;;;;8.77;4.05;;;;;;;20.43;45.79;94711.34;10476609;28;20053;-54
2021/12/02 02:28:36;;;;;;;7.05;4.18;;;;;;;20.41;45.74;94721.75;10472902;28;20037;-53
2021/12/02 02:33:56;;;;;;;6.60;4.20;;;;;;;20.41;45.91;94727.16;10496935;28;20047;-53
2021/12/02 02:39:16;;;;;;;8.43;4.10;;;;;;;20.38;45.72;94728.69;10451462;28;20060;-53
2021/12/02 02:44:36;;;;;;;6.85;4.05;;;;;;;20.38;45.82;94733.31;10477341;28;20099;-54
2021/12/02 02:49:56;;;;;;;6.18;4.13;;;;;;;20.35;45.76;94730.22;10478244;28;20049;-53
2021/12/02 02:55:22;;;;;;;6.82;4.05;;;;;;;20.33;45.72;94743.34;10494265;28;20057;-53
2021/12/02 03:01:02;;;;;;;7.15;3.90;;;;;;;20.32;45.75;94754.53;10493858;28;20045;-53
2021/12/02 03:11:52;;;;;;;6.85;4.00;;;;;;;20.30;45.73;94762.25;10461914;28;20071;-53
2021/12/02 03:17:12;;;;;;;5.53;3.38;;;;;;;20.28;45.80;94759.16;10482759;28;20060;-53
2021/12/02 03:22:33;;;;;;;4.97;3.25;;;;;;;20.26;45.65;94764.94;10475591;28;20045;-53
2021/12/02 03:27:52;;;;;;;6.25;3.63;;;;;;;20.25;45.64;94758.00;10494854;28;20056;-53
2021/12/02 03:33:12;;;;;;;5.57;3.55;;;;;;;20.23;45.56;94770.31;10473760;28;20057;-53
2021/12/02 03:38:32;;;;;;;6.45;3.60;;;;;;;20.21;45.71;94768.00;10471848;28;20400;-53
2021/12/02 03:43:51;;;;;;;5.05;3.33;;;;;;;20.20;45.55;94766.44;10496847;28;20080;-52
2021/12/02 03:49:11;;;;;;;5.72;3.45;;;;;;;20.18;45.79;94782.28;10463821;28;20109;-53
2021/12/02 03:54:31;;;;;;;5.43;2.90;;;;;;;20.16;45.71;94781.88;10454387;28;20389;-53
2021/12/02 03:59:50;;;;;;;5.97;2.90;;;;;;;20.15;45.74;94789.22;10502206;28;20037;-54
2021/12/02 04:05:09;;;;;;;5.43;3.05;;;;;;;20.14;45.63;94789.59;10467926;28;20056;-53
2021/12/02 04:10:31;;;;;;;5.55;3.05;;;;;;;20.12;45.68;94789.19;10463990;28;20103;-53
2021/12/02 04:15:56;;;;;;;5.15;3.25;;;;;;;20.11;45.60;94790.31;10461983;28;20126;-53
2021/12/02 04:21:16;;;;;;;8.60;3.22;;;;;;;20.12;45.67;94781.84;10476884;28;20060;-53
2021/12/02 04:26:36;;;;;;;4.50;3.00;;;;;;;20.10;45.60;94786.84;10462199;28;20158;-51
2021/12/02 04:31:56;;;;;;;4.63;2.75;;;;;;;20.10;45.55;94788.78;10487851;28;20040;-53
2021/12/02 04:37:15;;;;;;;4.43;2.70;;;;;;;20.11;45.65;94798.44;10458515;28;20451;-53
2021/12/02 04:42:34;;;;;;;4.55;3.00;;;;;;;20.12;45.62;94794.59;10471960;28;20049;-52
2021/12/02 04:47:53;;;;;;;6.97;3.10;;;;;;;20.11;45.70;94810.03;10475684;28;20079;-53
2021/12/02 04:53:12;;;;;;;5.10;3.08;;;;;;;20.12;45.67;94800.00;10480869;28;20041;-54
2021/12/02 04:58:32;;;;;;;4.00;2.50;;;;;;;20.12;45.70;94808.09;10470896;28;20048;-52
2021/12/02 05:03:52;;;;;;;4.43;2.80;;;;;;;20.14;45.57;94795.75;10463799;28;20048;-53
2021/12/02 05:09:12;;;;;;;3.85;2.72;;;;;;;20.14;45.77;94806.56;10454514;28;20053;-54
2021/12/02 05:14:33;;;;;;;4.60;2.80;;;;;;;20.14;45.82;94806.56;10448066;28;20099;-54
2021/12/02 05:19:52;;;;;;;4.20;2.88;;;;;;;20.14;46.03;94803.09;10465621;28;20724;-53
2021/12/02 05:25:12;;;;;;;4.18;2.50;;;;;;;20.15;46.26;94810.06;10468189;28;20052;-53
2021/12/02 05:30:32;;;;;;;4.85;2.55;;;;;;;20.16;46.14;94808.91;10481277;28;20039;-53
2021/12/02 05:35:51;;;;;;;4.70;2.88;;;;;;;20.19;46.29;94812.78;10463766;28;20056;-53
2021/12/02 05:41:13;;;;;;;4.93;2.38;;;;;;;20.20;46.24;94817.81;10483887;28;20063;-53
2021/12/02 05:46:33;;;;;;;4.60;2.65;;;;;;;20.22;46.34;94837.13;10479792;28;20037;-53
2021/12/02 05:51:53;;;;;;;4.82;2.53;;;;;;;20.25;46.44;94849.16;10461755;28;20057;-53
2021/12/02 05:57:13;;;;;;;3.92;2.05;;;;;;;20.27;46.69;94841.44;10447913;28;20048;-53
2021/12/02 06:02:36;;;;;;;3.17;2.33;;;;;;;20.29;46.76;94839.91;10448006;28;20052;-52
2021/12/02 06:08:01;;;;;;;6.43;2.75;;;;;;;20.33;46.87;94875.09;10450932;28;20547;-51
2021/12/02 06:13:20;;;;;;;5.85;2.42;;;;;;;20.34;46.74;94885.50;10465997;28;20044;-52
2021/12/02 06:18:40;;;;;;;9.05;2.75;;;;;;;20.37;46.78;94867.00;10465262;28;20044;-54
2021/12/02 06:24:02;;;;;;;9.40;3.47;;;;;;;20.40;46.88;94877.06;10478298;28;20045;-54
2021/12/02 06:29:21;;;;;;;8.10;3.50;;;;;;;20.41;46.76;94884.03;10485767;28;20044;-53
2021/12/02 06:34:41;;;;;;;8.25;3.38;;;;;;;20.41;46.82;94884.78;10467653;28;20047;-53
2021/12/02 06:40:00;;;;;;;9.05;3.63;;;;;;;20.44;46.84;94880.56;10466589;28;20033;-53
2021/12/02 06:45:20;;;;;;;11.27;3.63;;;;;;;20.45;46.72;94895.66;10474425;28;20048;-53
2021/12/02 06:50:41;;;;;;;9.75;3.60;;;;;;;20.45;46.52;94898.34;10484103;28;20049;-53
2021/12/02 06:56:00;;;;;;;9.93;3.55;;;;;;;20.46;46.68;94903.34;10466481;28;20079;-53
2021/12/02 07:01:20;;;;;;;10.68;3.78;;;;;;;20.45;46.80;94903.75;10467339;28;20053;-54
2021/12/02 07:06:40;;;;;;;10.48;3.55;;;;;;;20.47;46.88;94914.97;10481739;28;20542;-53
2021/12/02 07:12:00;;;;;;;10.32;3.65;;;;;;;20.44;46.64;94916.47;10453685;28;20036;-53
2021/12/02 07:17:19;;;;;;;9.55;3.53;;;;;;;20.46;46.80;94924.22;10466171;28;20048;-53
2021/12/02 07:22:38;;;;;;;13.18;3.78;;;;;;;20.45;46.67;94918.03;10478637;28;20045;-53
2021/12/02 07:27:59;;;;;;;7.57;3.38;;;;;;;20.44;46.74;94910.31;10470593;28;20510;-53
2021/12/02 07:33:20;;;;;;;7.40;3.53;;;;;;;20.43;46.57;94914.19;10460697;28;20060;-54
2021/12/02 07:38:40;;;;;;;8.57;3.88;;;;;;;20.43;46.50;94916.88;10484134;28;20041;-54
2021/12/02 07:44:00;;;;;;;7.85;3.50;;;;;;;20.43;46.52;94917.66;10474479;28;20065;-53
2021/12/02 07:49:19;;;;;;;9.00;3.08;;;;;;;20.43;46.47;94914.19;10470821;28;20053;-53
2021/12/02 07:54:39;;;;;;;5.50;3.08;;;;;;;20.43;46.41;94925.75;10515725;28;20137;-53
2021/12/02 07:59:58;;;;;;;9.57;3.22;;;;;;;20.42;46.41;94926.13;10499472;28;20500;-53
2021/12/02 08:05:18;;;;;;;7.47;3.55;;;;;;;20.43;46.45;94933.09;10507652;28;20071;-54
2021/12/02 08:10:38;;;;;;;6.65;2.78;;;;;;;20.43;46.39;94946.63;10490085;28;20125;-54
2021/12/02 08:15:58;;;;;;;6.28;2.92;;;;;;;20.43;46.33;94968.25;10477236;28;20072;-54
2021/12/02 08:21:18;;;;;;;6.75;2.85;;;;;;;20.41;46.39;94968.63;10487778;28;20056;-53
2021/12/02 08:26:38;;;;;;;9.50;3.40;;;;;;;20.40;46.30;94977.88;10492529;28;20083;-54
2021/12/02 08:31:58;;;;;;;9.13;3.55;;;;;;;20.40;46.18;94993.34;10476042;28;20078;-54
2021/12/02 08:37:18;;;;;;;9.40;3.38;;;;;;;20.39;45.93;94995.28;10505287;28;20040;-54
2021/12/02 08:42:38;;;;;;;8.13;3.38;;;;;;;20.37;46.27;94992.16;10501934;28;20137;-54
2021/12/02 08:47:58;;;;;;;12.02;3.63;;;;;;;20.37;46.22;94986.00;10483093;28;20041;-52
2021/12/02 08:53:21;;;;;;;15.32;3.95;;;;;;;20.35;46.37;95006.06;10487796;28;20044;-52
2021/12/02 08:58:41;;;;;;;14.77;4.20;;;;;;;20.36;46.15;95006.81;10481553;28;20052;-54
2021/12/02 09:04:04;;;;;;;11.43;3.70;;;;;;;20.35;46.33;95010.69;10487788;28;20491;-53
2021/12/02 09:09:26;;;;;;;11.73;4.20;;;;;;;20.33;46.27;95000.25;10474712;28;20057;-53
2021/12/02 09:14:45;;;;;;;10.93;3.72;;;;;;;20.31;46.20;95010.66;10485440;28;20052;-53
2021/12/02 09:20:06;;;;;;;12.05;3.83;;;;;;;20.32;46.16;94995.97;10485887;28;20048;-54
2021/12/02 09:25:27;;;;;;;12.57;4.03;;;;;;;20.31;46.18;94999.06;10483591;28;20440;-54
2021/12/02 09:30:47;;;;;;;14.73;3.85;;;;;;;20.28;46.18;95000.56;10477193;28;20515;-53
2021/12/02 09:36:06;;;;;;;11.68;4.22;;;;;;;20.29;46.08;95002.16;10449182;28;20053;-53
2021/12/02 09:41:26;;;;;;;14.43;4.20;;;;;;;20.28;46.00;95003.28;10450585;28;20400;-53
2021/12/02 09:46:45;;;;;;;13.88;3.90;;;;;;;20.27;45.95;95001.75;10463486;28;20048;-53
2021/12/02 09:52:09;;;;;;;14.75;4.03;;;;;;;20.26;46.05;95002.88;10448709;28;20059;-54
2021/12/02 09:57:34;;;;;;;10.02;3.50;;;;;;;20.25;45.96;95005.97;10449264;28;20053;-52
2021/12/02 10:03:03;;;;;;;10.63;4.07;;;;;;;20.23;45.93;95005.53;10462238;28;20611;-54
2021/12/02 10:08:25;;;;;;;11.77;3.55;;;;;;;20.22;45.93;94995.88;10448483;28;20115;-53
2021/12/02 10:13:48;;;;;;;10.93;4.30;;;;;;;20.21;45.94;95002.44;10448062;28;20040;-53
2021/12/02 10:19:12;;;;;;;10.40;3.47;;;;;;;20.19;45.77;95007.44;10448465;28;20049;-53
2021/12/02 10:24:31;;;;;;;11.20;3.55;;;;;;;20.20;45.99;94998.19;10461620;28;20047;-53
2021/12/02 10:29:51;;;;;;;6.38;3.08;;;;;;;20.19;46.16;94996.63;10447602;28;20053;-53
2021/12/02 10:35:13;;;;;;;7.65;2.83;;;;;;;20.16;46.17;94987.34;10461474;28;20047;-54
2021/12/02 10:40:34;;;;;;;6.43;3.03;;;;;;;20.16;45.98;94992.75;10448425;28;20060;-53
2021/12/02 10:46:12;;;;;;;9.27;3.00;;;;;;;20.14;46.18;94981.53;10461504;28;20677;-53
2021/12/02 10:51:45;;;;;;;7.05;2.67;;;;;;;20.14;45.88;94989.63;10447785;28;20052;-53
2021/12/02 10:57:27;;;;;;;6.57;3.08;;;;;;;20.12;46.02;94978.41;10447300;28;20053;-53
2021/12/02 11:02:49;;;;;;;6.57;2.72;;;;;;;20.09;45.88;94981.84;10447257;28;20049;-53
2021/12/02 11:08:11;;;;;;;6.00;2.80;;;;;;;20.09;45.96;94976.44;10446829;28;20056;-53
2021/12/02 11:13:30;;;;;;;6.30;2.75;;;;;;;20.08;46.05;94977.59;10453686;28;20128;-53
2021/12/02 11:18:52;;;;;;;5.47;2.55;;;;;;;20.06;45.99;94982.59;10468840;28;20091;-54
2021/12/02 11:24:30;;;;;;;7.05;2.80;;;;;;;20.06;45.93;94994.19;10455344;28;20049;-53
2021/12/02 11:29:52;;;;;;;7.65;2.72;;;;;;;20.04;45.88;94993.78;10454772;28;20098;-54
2021/12/02 11:35:14;;;;;;;6.43;2.55;;;;;;;20.03;46.00;95000.34;10454556;28;20049;-53
2021/12/02 11:40:40;;;;;;;5.35;2.30;;;;;;;20.02;45.89;95004.19;10468068;28;20048;-54
2021/12/02 11:46:01;;;;;;;3.53;2.15;;;;;;;20.00;45.84;95011.91;10454422;28;20076;-53
2021/12/02 11:51:22;;;;;;;7.25;2.80;;;;;;;20.00;45.71;94994.91;10454294;28;20524;-53
2021/12/02 11:56:41;;;;;;;6.07;2.30;;;;;;;19.97;45.74;94985.59;10467571;28;20500;-54
2021/12/02 12:02:01;;;;;;;3.17;2.15;;;;;;;19.97;45.73;94995.63;10453678;28;20404;-53
2021/12/02 12:07:22;;;;;;;4.28;2.47;;;;;;;19.97;45.67;95001.03;10453045;28;20060;-53
2021/12/02 12:12:43;;;;;;;4.57;2.30;;;;;;;19.94;45.62;94997.16;10452368;28;20442;-54
2021/12/02 12:18:05;;;;;;;3.63;2.40;;;;;;;19.93;45.61;94988.28;10453044;28;20056;-53
2021/12/02 12:23:32;;;;;;;6.05;2.10;;;;;;;19.92;45.63;94980.53;10451716;28;20598;-53
2021/12/02 12:29:07;;;;;;;5.07;2.30;;;;;;;19.90;45.76;94986.31;10452996;28;20420;-53
2021/12/02 12:40:08;;;;;;;4.55;2.17;;;;;;;19.88;45.64;95001.34;10465616;28;20045;-53
2021/12/02 12:45:27;;;;;;;;;;;;;;;19.86;45.65;95001.72;10465908;28;20044;-53
2021/12/02 12:50:47;;;;;;;3.28;1.80;;;;;;;19.86;45.73;95007.13;10451688;28;19928;-53
2021/12/02 12:56:09;;;;;;;5.53;2.35;;;;;;;19.84;45.78;95009.41;10451800;28;20049;-53
2021/12/02 13:01:29;;;;;;;5.82;2.08;;;;;;;19.83;45.66;95005.13;10451780;28;20107;-53
2021/12/02 13:06:50;;;;;;;3.60;2.15;;;;;;;19.82;45.70;94989.31;10451304;28;20486;-53
2021/12/02 13:12:12;;;;;;;6.32;2.20;;;;;;;19.81;45.66;94990.44;10455177;28;20097;-52
2021/12/02 13:17:42;;;;;;;4.47;1.95;;;;;;;19.78;45.64;94983.88;10450050;28;20053;-54
2021/12/02 13:23:17;;;;;;;3.42;2.05;;;;;;;19.78;45.76;94969.56;10450051;28;20057;-53
2021/12/02 13:28:42;;;;;;;2.97;1.83;;;;;;;19.78;45.63;94973.06;10450439;28;20059;-53
2021/12/02 13:34:05;;;;;;;4.03;1.92;;;;;;;19.81;45.68;94982.34;10449080;28;20053;-53
2021/12/02 13:39:29;;;;;;;3.25;2.17;;;;;;;19.80;45.77;94978.06;10450120;28;20052;-54
2021/12/02 13:44:51;;;;;;;4.55;1.85;;;;;;;19.81;45.86;94968.84;10449828;28;20057;-54
2021/12/02 13:50:16;;;;;;;3.30;1.90;;;;;;;19.82;45.73;94979.28;10449307;28;20063;-54
2021/12/02 13:55:41;;;;;;;3.35;2.00;;;;;;;19.84;45.80;94995.13;10449532;28;20064;-53
2021/12/02 14:01:00;;;;;;;2.63;1.52;;;;;;;19.87;45.66;95002.47;10462754;28;20049;-52
2021/12/02 14:06:22;;;;;;;2.78;1.90;;;;;;;19.87;45.67;94997.84;10448847;28;20057;-53
2021/12/02 14:11:41;;;;;;;3.60;1.70;;;;;;;19.89;45.58;94995.53;10448618;28;20481;-53
2021/12/02 14:17:05;;;;;;;3.20;1.70;;;;;;;19.91;45.53;95000.59;10448227;28;20132;-53
2021/12/02 14:22:25;;;;;;;3.85;1.73;;;;;;;19.94;45.33;95014.16;10448078;28;20064;-53
2021/12/02 14:27:44;;;;;;;4.00;1.60;;;;;;;19.97;45.41;95025.38;10448184;28;20703;-53
2021/12/02 14:33:06;;;;;;;3.42;1.70;;;;;;;20.01;45.33;95034.28;10461447;28;20041;-54
2021/12/02 14:38:38;;;;;;;2.40;1.60;;;;;;;20.03;45.45;95029.28;10447831;28;20118;-52
2021/12/02 14:44:07;;;;;;;3.65;1.73;;;;;;;20.06;45.26;95048.25;10447607;28;20688;-52
2021/12/02 14:49:33;;;;;;;2.15;1.45;;;;;;;20.03;43.06;95056.31;10447073;28;20045;-53
2021/12/02 14:55:00;;;;;;;4.38;1.70;;;;;;;20.07;44.58;95066.03;10450762;28;20049;-54
2021/12/02 15:00:21;;;;;;;3.95;1.55;;;;;;;20.11;44.70;95068.75;10477019;28;20076;-54
2021/12/02 15:05:42;;;;;;;2.00;1.42;;;;;;;20.17;44.84;95083.53;10483616;28;20690;-53
2021/12/02 15:11:02;;;;;;;2.80;1.77;;;;;;;20.22;45.19;95085.13;10469659;28;20519;-54
2021/12/02 15:16:22;;;;;;;3.00;1.70;;;;;;;20.26;45.06;95091.34;10487740;28;20053;-54
2021/12/02 15:21:41;;;;;;;2.08;1.33;;;;;;;20.30;45.13;95095.63;10473173;28;20454;-54
2021/12/02 15:27:12;;;;;;;2.60;1.35;;;;;;;20.35;44.98;95092.59;10466413;28;20404;-53
2021/12/02 15:32:34;;;;;;;3.25;1.40;;;;;;;20.37;44.97;95092.22;10469436;28;20060;-54
2021/12/02 15:37:54;;;;;;;1.40;1.20;;;;;;;20.39;44.75;95095.34;10463056;28;20060;-53
2021/12/02 15:43:28;;;;;;;4.13;1.60;;;;;;;20.43;44.93;95109.69;10487599;28;20048;-54
2021/12/02 15:48:49;;;;;;;2.60;1.38;;;;;;;20.45;44.77;95118.19;10476732;28;20048;-54
2021/12/02 15:54:10;;;;;;;2.13;1.30;;;;;;;20.46;44.67;95125.16;10479813;28;20083;-54
2021/12/02 15:59:30;;;;;;;2.45;1.30;;;;;;;20.48;44.73;95125.59;10463099;28;20078;-53
2021/12/02 16:15:31;;;;;;;1.92;1.40;;;;;;;20.56;44.53;95150.75;10483060;28;20491;-54
2021/12/02 16:20:52;;;;;;;2.13;1.35;;;;;;;20.60;44.52;95164.38;10484126;28;20491;-54
2021/12/02 16:26:13;;;;;;;2.03;1.42;;;;;;;20.63;44.44;95169.03;10469247;28;20045;-54
2021/12/02 16:31:32;;;;;;;1.30;1.13;;;;;;;20.66;44.48;95179.91;10477423;28;20049;-53
2021/12/02 16:36:52;;;;;;;1.80;1.35;;;;;;;20.68;44.44;95180.31;10475673;28;20070;-54
2021/12/02 16:42:11;;;;;;;3.67;1.27;;;;;;;20.68;39.67;95190.34;10482510;28;20072;-53
2021/12/02 16:47:32;;;;;;;2.28;1.15;;;;;;;20.62;42.35;95186.41;10463591;28;20057;-53
2021/12/02 16:52:53;;;;;;;4.07;1.30;;;;;;;20.65;42.64;95175.63;10476155;28;20040;-55
2021/12/02 16:58:12;;;;;;;4.38;1.30;;;;;;;20.73;42.54;95169.16;10467063;28;20055;-53
2021/12/02 17:03:32;;;;;;;4.65;1.30;;;;;;;20.78;42.72;95186.19;10460524;28;20041;-52
2021/12/02 17:08:52;;;;;;;4.20;1.25;;;;;;;20.82;42.98;95181.63;10452197;28;20091;-51
2021/12/02 17:14:12;;;;;;;4.03;1.23;;;;;;;20.85;43.13;95188.97;10459396;28;20538;-55
2021/12/02 17:19:32;;;;;;;2.65;1.30;;;;;;;20.88;43.22;95199.84;10455183;28;20053;-56
2021/12/02 17:24:52;;;;;;;3.35;1.13;;;;;;;20.94;43.42;95219.25;10462420;28;20041;-53
2021/12/02 17:30:11;;;;;;;6.13;1.40;;;;;;;20.98;43.35;95219.28;10469198;28;20056;-54
2021/12/02 17:35:31;;;;;;;2.97;1.20;;;;;;;21.03;43.43;95227.84;10518192;28;20063;-53
2021/12/02 17:40:53;;;;;;;5.97;1.70;;;;;;;21.07;43.76;95217.84;10467454;28;20479;-52
2021/12/02 17:46:12;;;;;;;4.15;1.20;;;;;;;21.10;43.61;95233.31;10464074;28;20041;-53
2021/12/02 17:51:32;;;;;;;8.18;2.40;;;;;;;21.13;43.81;95248.84;10455867;28;20048;-53
2021/12/02 17:56:52;;;;;;;3.40;1.30;;;;;;;21.18;43.90;95263.19;10456459;28;20053;-53
2021/12/02 18:02:15;;;;;;;1.48;1.08;;;;;;;21.23;43.88;95268.25;10471686;28;20044;-54
2021/12/02 18:07:35;;;;;;;6.25;3.53;;;;;;;21.25;43.72;95264.03;10458288;28;20566;-54
2021/12/02 18:12:58;;;;;;;5.03;2.53;;;;;;;21.29;43.33;95280.34;10460453;28;20045;-51
2021/12/02 18:18:17;;;;;;;4.43;1.95;;;;;;;21.33;43.35;95300.88;10483697;28;20500;-53
2021/12/02 18:26:35;;;;;;;4.95;1.85;;;;;;;21.32;43.62;95312.84;10505570;27;20973;-53
2021/12/02 18:31:55;;;;;;;2.30;1.63;;;;;;;21.34;43.75;95323.31;10537161;28;20036;-53
2021/12/02 18:37:22;;;;;;;3.47;1.80;;;;;;;21.39;43.86;95339.25;10524649;28;20102;-54
2021/12/02 18:42:42;;;;;;;2.00;1.60;;;;;;;21.41;43.74;95336.94;10518306;28;20044;-54
2021/12/02 18:48:01;;;;;;;4.22;2.05;;;;;;;21.47;43.89;95346.31;10498490;28;20060;-54
2021/12/02 18:53:22;;;;;;;3.35;1.90;;;;;;;21.50;44.16;95351.00;10493221;28;20057;-54
2021/12/02 18:58:41;;;;;;;2.95;1.80;;;;;;;21.53;44.39;95361.09;10501727;28;20052;-54
2021/12/02 19:04:05;;;;;;;3.53;1.73;;;;;;;21.58;44.48;95367.31;10526970;28;20048;-55
2021/12/02 19:26:20;;;;;;;4.68;2.08;;;;;;;21.66;45.05;95399.56;10478953;28;19920;-55
2021/12/02 19:31:46;;;;;;;6.22;1.90;;;;;;;21.68;45.20;95416.22;10498136;28;20036;-56
2021/12/02 19:37:06;;;;;;;3.58;1.90;;;;;;;21.68;45.05;95437.91;10472002;28;20056;-56
2021/12/02 19:42:25;;;;;;;5.82;2.22;;;;;;;21.68;45.16;95451.47;10450695;28;20037;-53
2021/12/02 19:47:45;;;;;;;3.33;1.88;;;;;;;21.66;45.23;95452.97;10468053;28;20041;-52
2021/12/02 19:53:05;;;;;;;4.13;2.10;;;;;;;21.67;45.24;95470.78;10483590;28;20045;-53
2021/12/02 19:58:25;;;;;;;5.90;2.13;;;;;;;21.65;45.20;95467.69;10459220;28;20655;-56
2021/12/02 20:03:46;;;;;;;3.85;2.17;;;;;;;21.64;45.38;95466.91;10460995;28;20049;-55
2021/12/02 20:09:06;;;;;;;4.00;2.35;;;;;;;21.64;45.18;95474.22;10461642;28;20052;-56
2021/12/02 20:14:26;;;;;;;3.50;2.30;;;;;;;21.65;45.17;95483.94;10468385;28;20051;-54
2021/12/02 20:19:46;;;;;;;3.88;2.15;;;;;;;21.65;45.52;95486.66;10470096;28;20036;-54
2021/12/02 20:25:07;;;;;;;3.83;2.35;;;;;;;21.65;45.58;95492.06;10454595;28;20061;-53
2021/12/02 20:30:27;;;;;;;4.20;2.50;;;;;;;21.66;45.65;95504.47;10452803;28;20057;-54
2021/12/02 20:35:46;;;;;;;6.05;2.40;;;;;;;21.66;46.03;95512.59;10474728;28;20040;-55
2021/12/02 20:41:07;;;;;;;5.63;2.97;;;;;;;21.63;45.98;95516.81;10452692;28;20056;-55
2021/12/02 20:46:30;;;;;;;7.65;2.63;;;;;;;21.63;46.26;95514.13;10468816;28;20040;-53
2021/12/02 20:51:50;;;;;;;5.93;2.67;;;;;;;21.62;46.46;95525.31;10460010;28;20053;-55
2021/12/02 20:57:11;;;;;;;7.47;2.33;;;;;;;21.61;46.67;95521.06;10472074;28;20044;-60
2021/12/02 21:02:33;;;;;;;10.93;2.55;;;;;;;21.61;46.62;95531.91;10457963;28;20112;-58
2021/12/02 21:07:52;;;;;;;4.13;2.33;;;;;;;21.61;46.81;95531.91;10467328;28;20056;-59
2021/12/02 21:13:16;;;;;;;4.18;2.35;;;;;;;21.59;47.04;95542.31;10466263;28;20409;-59
2021/12/02 21:18:37;;;;;;;7.75;2.80;;;;;;;21.59;47.01;95539.63;10461666;28;20103;-55
2021/12/02 21:23:56;;;;;;;6.25;2.88;;;;;;;21.59;47.01;95539.63;10440997;28;20423;-58
2021/12/02 21:29:19;;;;;;;4.88;2.38;;;;;;;21.59;47.01;95539.63;10447225;28;20056;-56
2021/12/02 21:34:39;;;;;;;6.60;2.50;;;;;;;21.57;47.12;95556.25;10459101;28;20728;-57
2021/12/02 21:40:02;;;;;;;4.85;2.35;;;;;;;-146.19;100.00;65364.44;10473299;28;20785;-57
2021/12/02 21:45:23;;;;;;;6.15;2.38;;;;;;;-146.19;100.00;65364.44;10464254;28;20048;-57
2021/12/02 21:50:43;;;;;;;5.32;2.17;;;;;;;21.57;47.12;95556.25;10449282;28;20040;-56
2021/12/02 21:56:03;;;;;;;4.10;2.22;;;;;;;21.57;47.12;95556.25;10478691;28;20545;-57
2021/12/02 22:01:36;;;;;;;5.82;2.20;;;;;;;-146.19;100.00;65364.44;10491020;28;20683;-55
2021/12/02 22:06:56;;;;;;;11.15;3.92;;;;;;;-146.19;100.00;65364.44;10452746;28;20060;-54
2021/12/02 22:12:15;;;;;;;7.63;3.20;;;;;;;21.57;47.12;95556.25;10468794;28;20379;-54
2021/12/02 22:17:35;;;;;;;5.65;2.60;;;;;;;21.47;46.82;95619.19;10450320;28;20048;-53
2021/12/02 22:22:55;;;;;;;6.72;2.50;;;;;;;21.47;46.77;95632.75;10454527;28;20527;-54
2021/12/02 22:28:14;;;;;;;5.75;2.38;;;;;;;21.44;46.77;95642.38;10459956;28;20033;-54
2021/12/02 22:33:34;;;;;;;5.22;2.45;;;;;;;-146.19;100.00;65364.44;10456137;28;20049;-55
2021/12/02 22:38:54;;;;;;;6.75;2.50;;;;;;;-146.19;100.00;65364.44;10467353;28;20102;-56
2021/12/02 22:44:13;;;;;;;4.53;2.33;;;;;;;-146.19;100.00;65364.44;10469611;28;20040;-55
2021/12/02 22:49:33;;;;;;;3.67;1.90;;;;;;;21.44;46.77;95642.38;10468429;28;20049;-55
2021/12/02 22:54:52;;;;;;;3.85;2.22;;;;;;;21.40;46.57;95674.00;10480607;28;20373;-55
2021/12/02 23:00:18;;;;;;;4.25;2.35;;;;;;;21.39;46.56;95675.19;10485830;28;20435;-55
2021/12/02 23:05:37;;;;;;;3.97;1.80;;;;;;;21.38;46.55;95681.72;10483200;28;20052;-55
2021/12/02 23:10:57;;;;;;;4.45;1.92;;;;;;;21.36;46.58;95685.94;10479177;28;20059;-55
2021/12/02 23:16:17;;;;;;;3.38;1.83;;;;;;;21.35;46.59;95687.88;10492999;28;20044;-55
2021/12/02 23:21:37;;;;;;;3.83;2.00;;;;;;;21.32;46.55;95683.94;10506014;28;20032;-55
2021/12/02 23:27:04;;;;;;;3.30;1.50;;;;;;;21.32;46.60;95699.44;10488815;28;20525;-55
2021/12/02 23:32:24;;;;;;;4.07;2.03;;;;;;;21.29;46.69;95711.78;10492624;28;20051;-55
2021/12/02 23:37:43;;;;;;;4.97;2.03;;;;;;;21.28;46.62;95721.03;10500039;28;20036;-56
2021/12/02 23:43:04;;;;;;;3.50;1.83;;;;;;;21.27;46.61;95724.91;10491846;28;20041;-55
2021/12/02 23:48:23;;;;;;;3.38;1.92;;;;;;;21.25;46.66;95734.53;10502178;28;20036;-55
2021/12/02 23:53:43;;;;;;;3.65;1.70;;;;;;;21.23;46.69;95734.09;10473368;28;20037;-55
2021/12/02 23:59:03;;;;;;;3.42;1.95;;;;;;;21.21;46.60;95742.59;10479128;28;20487;-55
